sensor_id;sensor_type;location;lat;lon;timestamp;temperature;humidity
12622;DHT22;6376;48.182;-1.644;2023-11-21T00:00:44;14.30;95.00
12622;DHT22;6376;48.182;-1.644;2023-11-21T00:03:11;14.30;95.00
12622;DHT22;6376;48.182;-1.644;2023-11-21T00:05:40;14.30;95.00
12622;DHT22;6376;48.182;-1.644;2023-11-21T00:08:07;14.30;95.00
12622;DHT22;6376;48.182;-1.644;2023-11-21T00:10:33;14.30;95.00
12622;DHT22;6376;48.182;-1.644;2023-11-21T00:12:59;14.30;95.00
12622;DHT22;6376;48.182;-1.644;2023-11-21T00:15:24;14.30;95.00
12622;DHT22;6376;48.182;-1.644;2023-11-21T00:17:51;14.20;95.00
12622;DHT22;6376;48.182;-1.644;2023-11-21T00:20:17;14.30;95.00
12622;DHT22;6376;48.182;-1.644;2023-11-21T00:22:43;14.20;95.00
12622;DHT22;6376;48.182;-1.644;2023-11-21T00:25:08;14.20;95.00
12622;DHT22;6376;48.182;-1.644;2023-11-21T00:27:38;14.30;95.00
12622;DHT22;6376;48.182;-1.644;2023-11-21T00:30:04;14.20;95.00
12622;DHT22;6376;48.182;-1.644;2023-11-21T00:32:31;14.30;95.00
12622;DHT22;6376;48.182;-1.644;2023-11-21T00:34:56;14.30;95.10
12622;DHT22;6376;48.182;-1.644;2023-11-21T00:37:22;14.20;95.00
12622;DHT22;6376;48.182;-1.644;2023-11-21T00:39:49;14.30;95.10
12622;DHT22;6376;48.182;-1.644;2023-11-21T00:42:14;14.30;95.10
12622;DHT22;6376;48.182;-1.644;2023-11-21T00:44:40;14.30;95.10
12622;DHT22;6376;48.182;-1.644;2023-11-21T00:47:06;14.30;95.40
12622;DHT22;6376;48.182;-1.644;2023-11-21T00:49:31;14.30;95.10
12622;DHT22;6376;48.182;-1.644;2023-11-21T00:51:57;14.20;95.10
12622;DHT22;6376;48.182;-1.644;2023-11-21T00:54:23;14.30;95.10
12622;DHT22;6376;48.182;-1.644;2023-11-21T00:56:49;14.30;95.10
12622;DHT22;6376;48.182;-1.644;2023-11-21T00:59:15;14.30;95.10
12622;DHT22;6376;48.182;-1.644;2023-11-21T01:01:40;14.20;95.10
12622;DHT22;6376;48.182;-1.644;2023-11-21T01:04:06;14.30;95.10
12622;DHT22;6376;48.182;-1.644;2023-11-21T01:06:34;14.30;95.10
12622;DHT22;6376;48.182;-1.644;2023-11-21T01:09:00;14.30;95.10
12622;DHT22;6376;48.182;-1.644;2023-11-21T01:11:26;14.20;95.10
12622;DHT22;6376;48.182;-1.644;2023-11-21T01:13:51;14.20;95.10
12622;DHT22;6376;48.182;-1.644;2023-11-21T01:16:18;14.20;95.10
12622;DHT22;6376;48.182;-1.644;2023-11-21T01:18:44;14.30;95.10
12622;DHT22;6376;48.182;-1.644;2023-11-21T01:21:09;14.20;95.10
12622;DHT22;6376;48.182;-1.644;2023-11-21T01:23:35;14.20;95.10
12622;DHT22;6376;48.182;-1.644;2023-11-21T01:26:01;14.20;95.10
12622;DHT22;6376;48.182;-1.644;2023-11-21T01:28:26;14.20;95.10
12622;DHT22;6376;48.182;-1.644;2023-11-21T01:30:53;14.20;95.10
12622;DHT22;6376;48.182;-1.644;2023-11-21T01:33:22;14.20;95.10
12622;DHT22;6376;48.182;-1.644;2023-11-21T01:35:50;14.20;95.10
12622;DHT22;6376;48.182;-1.644;2023-11-21T01:38:16;14.20;95.10
12622;DHT22;6376;48.182;-1.644;2023-11-21T01:40:43;14.20;95.50
12622;DHT22;6376;48.182;-1.644;2023-11-21T01:43:08;14.20;95.20
12622;DHT22;6376;48.182;-1.644;2023-11-21T01:45:34;14.20;95.20
12622;DHT22;6376;48.182;-1.644;2023-11-21T01:48:00;14.20;95.20
12622;DHT22;6376;48.182;-1.644;2023-11-21T01:50:28;14.20;95.20
12622;DHT22;6376;48.182;-1.644;2023-11-21T01:52:54;14.20;95.20
12622;DHT22;6376;48.182;-1.644;2023-11-21T01:55:20;14.20;95.20
12622;DHT22;6376;48.182;-1.644;2023-11-21T01:57:46;14.20;95.20
12622;DHT22;6376;48.182;-1.644;2023-11-21T02:00:12;14.20;95.20
12622;DHT22;6376;48.182;-1.644;2023-11-21T02:02:47;14.20;95.20
12622;DHT22;6376;48.182;-1.644;2023-11-21T02:05:14;14.20;95.20
12622;DHT22;6376;48.182;-1.644;2023-11-21T02:07:41;14.20;95.20
12622;DHT22;6376;48.182;-1.644;2023-11-21T02:10:08;14.20;95.20
12622;DHT22;6376;48.182;-1.644;2023-11-21T02:12:34;14.20;95.30
12622;DHT22;6376;48.182;-1.644;2023-11-21T02:15:04;14.20;95.30
12622;DHT22;6376;48.182;-1.644;2023-11-21T02:17:35;14.20;95.30
12622;DHT22;6376;48.182;-1.644;2023-11-21T02:20:01;14.20;95.30
12622;DHT22;6376;48.182;-1.644;2023-11-21T02:22:31;14.20;95.30
12622;DHT22;6376;48.182;-1.644;2023-11-21T02:24:59;14.20;95.30
12622;DHT22;6376;48.182;-1.644;2023-11-21T02:27:25;14.20;95.30
12622;DHT22;6376;48.182;-1.644;2023-11-21T02:29:52;14.20;95.30
12622;DHT22;6376;48.182;-1.644;2023-11-21T02:32:18;14.10;95.60
12622;DHT22;6376;48.182;-1.644;2023-11-21T02:34:44;14.20;95.30
12622;DHT22;6376;48.182;-1.644;2023-11-21T02:37:10;14.10;95.30
12622;DHT22;6376;48.182;-1.644;2023-11-21T02:39:36;14.10;95.30
12622;DHT22;6376;48.182;-1.644;2023-11-21T02:42:01;14.10;95.20
12622;DHT22;6376;48.182;-1.644;2023-11-21T02:44:27;14.10;95.30
12622;DHT22;6376;48.182;-1.644;2023-11-21T02:46:52;14.10;95.20
12622;DHT22;6376;48.182;-1.644;2023-11-21T02:49:18;14.10;95.30
12622;DHT22;6376;48.182;-1.644;2023-11-21T02:51:44;14.20;95.30
12622;DHT22;6376;48.182;-1.644;2023-11-21T02:54:11;14.10;95.30
12622;DHT22;6376;48.182;-1.644;2023-11-21T02:56:37;14.10;95.30
12622;DHT22;6376;48.182;-1.644;2023-11-21T02:59:03;14.10;95.20
12622;DHT22;6376;48.182;-1.644;2023-11-21T03:01:28;14.10;95.20
12622;DHT22;6376;48.182;-1.644;2023-11-21T03:03:54;14.10;95.20
12622;DHT22;6376;48.182;-1.644;2023-11-21T03:06:21;14.10;95.20
12622;DHT22;6376;48.182;-1.644;2023-11-21T03:08:47;14.10;95.20
12622;DHT22;6376;48.182;-1.644;2023-11-21T03:11:13;14.10;95.20
12622;DHT22;6376;48.182;-1.644;2023-11-21T03:13:42;14.10;95.20
12622;DHT22;6376;48.182;-1.644;2023-11-21T03:16:11;14.10;95.20
12622;DHT22;6376;48.182;-1.644;2023-11-21T03:18:38;14.10;95.20
12622;DHT22;6376;48.182;-1.644;2023-11-21T03:21:04;14.10;95.20
12622;DHT22;6376;48.182;-1.644;2023-11-21T03:23:31;14.10;95.20
12622;DHT22;6376;48.182;-1.644;2023-11-21T03:25:56;14.10;95.20
12622;DHT22;6376;48.182;-1.644;2023-11-21T03:28:22;14.10;95.20
12622;DHT22;6376;48.182;-1.644;2023-11-21T03:30:49;14.10;95.20
12622;DHT22;6376;48.182;-1.644;2023-11-21T03:33:14;14.10;95.20
12622;DHT22;6376;48.182;-1.644;2023-11-21T03:35:40;14.10;95.20
12622;DHT22;6376;48.182;-1.644;2023-11-21T03:38:07;14.10;95.20
12622;DHT22;6376;48.182;-1.644;2023-11-21T03:40:33;14.10;95.20
12622;DHT22;6376;48.182;-1.644;2023-11-21T03:42:58;14.10;95.20
12622;DHT22;6376;48.182;-1.644;2023-11-21T03:45:24;14.10;95.20
12622;DHT22;6376;48.182;-1.644;2023-11-21T03:47:50;13.80;95.10
12622;DHT22;6376;48.182;-1.644;2023-11-21T03:50:15;14.10;95.20
12622;DHT22;6376;48.182;-1.644;2023-11-21T03:52:41;14.10;95.20
12622;DHT22;6376;48.182;-1.644;2023-11-21T03:55:08;14.10;95.20
12622;DHT22;6376;48.182;-1.644;2023-11-21T03:57:36;14.10;95.20
12622;DHT22;6376;48.182;-1.644;2023-11-21T04:00:01;14.10;95.20
12622;DHT22;6376;48.182;-1.644;2023-11-21T04:02:29;14.10;95.20
12622;DHT22;6376;48.182;-1.644;2023-11-21T04:04:57;14.10;95.20
12622;DHT22;6376;48.182;-1.644;2023-11-21T04:07:22;14.10;95.20
12622;DHT22;6376;48.182;-1.644;2023-11-21T04:09:48;14.10;95.20
12622;DHT22;6376;48.182;-1.644;2023-11-21T04:12:14;14.10;95.20
12622;DHT22;6376;48.182;-1.644;2023-11-21T04:14:39;14.10;95.20
12622;DHT22;6376;48.182;-1.644;2023-11-21T04:17:05;14.10;95.10
12622;DHT22;6376;48.182;-1.644;2023-11-21T04:19:31;14.10;95.10
12622;DHT22;6376;48.182;-1.644;2023-11-21T04:21:56;14.10;95.10
12622;DHT22;6376;48.182;-1.644;2023-11-21T04:24:23;14.10;95.20
12622;DHT22;6376;48.182;-1.644;2023-11-21T04:26:48;14.10;95.10
12622;DHT22;6376;48.182;-1.644;2023-11-21T04:29:14;14.10;95.20
12622;DHT22;6376;48.182;-1.644;2023-11-21T04:31:39;14.10;95.10
12622;DHT22;6376;48.182;-1.644;2023-11-21T04:34:05;14.10;95.10
12622;DHT22;6376;48.182;-1.644;2023-11-21T04:36:31;14.10;95.10
12622;DHT22;6376;48.182;-1.644;2023-11-21T04:38:56;14.10;95.10
12622;DHT22;6376;48.182;-1.644;2023-11-21T04:41:22;14.10;95.10
12622;DHT22;6376;48.182;-1.644;2023-11-21T04:43:48;14.10;95.10
12622;DHT22;6376;48.182;-1.644;2023-11-21T04:46:14;14.10;95.10
12622;DHT22;6376;48.182;-1.644;2023-11-21T04:48:40;14.10;95.10
12622;DHT22;6376;48.182;-1.644;2023-11-21T04:51:06;14.10;95.10
12622;DHT22;6376;48.182;-1.644;2023-11-21T04:53:32;14.10;95.00
12622;DHT22;6376;48.182;-1.644;2023-11-21T04:55:57;14.10;95.10
12622;DHT22;6376;48.182;-1.644;2023-11-21T04:58:23;14.10;95.10
12622;DHT22;6376;48.182;-1.644;2023-11-21T05:00:49;14.10;95.10
12622;DHT22;6376;48.182;-1.644;2023-11-21T05:03:15;14.10;95.10
12622;DHT22;6376;48.182;-1.644;2023-11-21T05:05:40;14.10;95.10
12622;DHT22;6376;48.182;-1.644;2023-11-21T05:08:06;14.10;95.10
12622;DHT22;6376;48.182;-1.644;2023-11-21T05:10:32;14.10;95.10
12622;DHT22;6376;48.182;-1.644;2023-11-21T05:12:57;14.10;95.20
12622;DHT22;6376;48.182;-1.644;2023-11-21T05:15:24;14.10;95.20
12622;DHT22;6376;48.182;-1.644;2023-11-21T05:17:50;14.10;95.20
12622;DHT22;6376;48.182;-1.644;2023-11-21T05:20:17;14.10;95.20
12622;DHT22;6376;48.182;-1.644;2023-11-21T05:22:49;14.10;95.20
12622;DHT22;6376;48.182;-1.644;2023-11-21T05:25:16;14.10;95.20
12622;DHT22;6376;48.182;-1.644;2023-11-21T05:27:46;14.10;95.30
12622;DHT22;6376;48.182;-1.644;2023-11-21T05:30:12;14.00;95.20
12622;DHT22;6376;48.182;-1.644;2023-11-21T05:32:39;14.00;95.20
12622;DHT22;6376;48.182;-1.644;2023-11-21T05:35:07;14.00;95.30
12622;DHT22;6376;48.182;-1.644;2023-11-21T05:37:37;14.00;95.20
12622;DHT22;6376;48.182;-1.644;2023-11-21T05:40:06;14.00;95.20
12622;DHT22;6376;48.182;-1.644;2023-11-21T05:42:35;14.00;95.20
12622;DHT22;6376;48.182;-1.644;2023-11-21T05:45:01;14.00;95.20
12622;DHT22;6376;48.182;-1.644;2023-11-21T05:47:41;14.00;95.20
12622;DHT22;6376;48.182;-1.644;2023-11-21T05:50:08;14.00;95.20
12622;DHT22;6376;48.182;-1.644;2023-11-21T05:52:41;14.00;95.20
12622;DHT22;6376;48.182;-1.644;2023-11-21T05:55:07;14.00;95.20
12622;DHT22;6376;48.182;-1.644;2023-11-21T05:57:36;14.00;95.20
12622;DHT22;6376;48.182;-1.644;2023-11-21T06:00:20;14.00;95.20
12622;DHT22;6376;48.182;-1.644;2023-11-21T06:02:50;14.00;95.20
12622;DHT22;6376;48.182;-1.644;2023-11-21T06:05:19;14.00;95.20
12622;DHT22;6376;48.182;-1.644;2023-11-21T06:07:45;14.00;95.30
12622;DHT22;6376;48.182;-1.644;2023-11-21T06:10:11;14.00;95.30
12622;DHT22;6376;48.182;-1.644;2023-11-21T06:12:40;14.00;95.20
12622;DHT22;6376;48.182;-1.644;2023-11-21T06:15:09;14.00;95.20
12622;DHT22;6376;48.182;-1.644;2023-11-21T06:17:36;14.00;95.20
12622;DHT22;6376;48.182;-1.644;2023-11-21T06:20:03;14.00;95.20
12622;DHT22;6376;48.182;-1.644;2023-11-21T06:22:36;14.00;95.10
12622;DHT22;6376;48.182;-1.644;2023-11-21T06:25:01;14.00;95.20
12622;DHT22;6376;48.182;-1.644;2023-11-21T06:27:28;14.00;95.50
12622;DHT22;6376;48.182;-1.644;2023-11-21T06:29:55;14.00;95.20
12622;DHT22;6376;48.182;-1.644;2023-11-21T06:32:20;14.00;95.20
12622;DHT22;6376;48.182;-1.644;2023-11-21T06:34:48;14.00;95.20
12622;DHT22;6376;48.182;-1.644;2023-11-21T06:37:15;14.00;95.20
12622;DHT22;6376;48.182;-1.644;2023-11-21T06:39:40;14.00;95.20
12622;DHT22;6376;48.182;-1.644;2023-11-21T06:42:06;14.00;95.20
12622;DHT22;6376;48.182;-1.644;2023-11-21T06:44:32;14.00;95.20
12622;DHT22;6376;48.182;-1.644;2023-11-21T06:46:59;14.00;95.20
12622;DHT22;6376;48.182;-1.644;2023-11-21T06:49:24;14.00;95.20
12622;DHT22;6376;48.182;-1.644;2023-11-21T06:51:51;14.00;95.20
12622;DHT22;6376;48.182;-1.644;2023-11-21T06:54:16;14.00;95.10
12622;DHT22;6376;48.182;-1.644;2023-11-21T06:56:42;14.00;95.20
12622;DHT22;6376;48.182;-1.644;2023-11-21T06:59:08;14.00;95.20
12622;DHT22;6376;48.182;-1.644;2023-11-21T07:01:34;14.00;95.10
12622;DHT22;6376;48.182;-1.644;2023-11-21T07:04:05;14.00;95.10
12622;DHT22;6376;48.182;-1.644;2023-11-21T07:06:31;14.00;95.10
12622;DHT22;6376;48.182;-1.644;2023-11-21T07:08:57;14.00;95.10
12622;DHT22;6376;48.182;-1.644;2023-11-21T07:11:24;14.00;95.10
12622;DHT22;6376;48.182;-1.644;2023-11-21T07:13:50;14.00;95.10
12622;DHT22;6376;48.182;-1.644;2023-11-21T07:16:16;14.00;95.10
12622;DHT22;6376;48.182;-1.644;2023-11-21T07:18:41;14.00;95.20
12622;DHT22;6376;48.182;-1.644;2023-11-21T07:21:07;14.00;95.10
12622;DHT22;6376;48.182;-1.644;2023-11-21T07:23:34;14.00;95.20
12622;DHT22;6376;48.182;-1.644;2023-11-21T07:25:59;14.00;95.10
12622;DHT22;6376;48.182;-1.644;2023-11-21T07:28:25;14.00;95.10
12622;DHT22;6376;48.182;-1.644;2023-11-21T07:30:51;14.00;95.10
12622;DHT22;6376;48.182;-1.644;2023-11-21T07:33:17;14.00;95.10
12622;DHT22;6376;48.182;-1.644;2023-11-21T07:35:43;14.00;95.10
12622;DHT22;6376;48.182;-1.644;2023-11-21T07:38:08;14.00;95.10
12622;DHT22;6376;48.182;-1.644;2023-11-21T07:40:34;14.00;95.10
12622;DHT22;6376;48.182;-1.644;2023-11-21T07:43:00;14.00;95.10
12622;DHT22;6376;48.182;-1.644;2023-11-21T07:45:26;14.00;95.00
12622;DHT22;6376;48.182;-1.644;2023-11-21T07:47:54;14.00;95.00
12622;DHT22;6376;48.182;-1.644;2023-11-21T07:50:21;14.00;95.10
12622;DHT22;6376;48.182;-1.644;2023-11-21T07:52:47;14.00;95.10
12622;DHT22;6376;48.182;-1.644;2023-11-21T07:55:12;14.00;95.10
12622;DHT22;6376;48.182;-1.644;2023-11-21T07:57:39;14.00;95.10
12622;DHT22;6376;48.182;-1.644;2023-11-21T08:00:06;14.00;95.10
12622;DHT22;6376;48.182;-1.644;2023-11-21T08:02:34;14.00;95.10
12622;DHT22;6376;48.182;-1.644;2023-11-21T08:05:00;14.00;95.10
12622;DHT22;6376;48.182;-1.644;2023-11-21T08:07:26;14.00;95.10
12622;DHT22;6376;48.182;-1.644;2023-11-21T08:09:51;14.00;95.10
12622;DHT22;6376;48.182;-1.644;2023-11-21T08:12:18;14.00;95.10
12622;DHT22;6376;48.182;-1.644;2023-11-21T08:14:45;14.00;95.00
12622;DHT22;6376;48.182;-1.644;2023-11-21T08:17:11;14.00;95.10
12622;DHT22;6376;48.182;-1.644;2023-11-21T08:19:36;14.00;95.10
12622;DHT22;6376;48.182;-1.644;2023-11-21T08:22:03;14.00;95.00
12622;DHT22;6376;48.182;-1.644;2023-11-21T08:24:29;14.00;95.00
12622;DHT22;6376;48.182;-1.644;2023-11-21T08:26:54;14.00;95.00
12622;DHT22;6376;48.182;-1.644;2023-11-21T08:29:20;14.00;95.00
12622;DHT22;6376;48.182;-1.644;2023-11-21T08:31:46;14.00;95.00
12622;DHT22;6376;48.182;-1.644;2023-11-21T08:34:14;14.00;95.00
12622;DHT22;6376;48.182;-1.644;2023-11-21T08:36:44;14.00;95.00
12622;DHT22;6376;48.182;-1.644;2023-11-21T08:39:09;14.00;95.00
12622;DHT22;6376;48.182;-1.644;2023-11-21T08:41:38;14.00;95.10
12622;DHT22;6376;48.182;-1.644;2023-11-21T08:44:05;14.00;95.00
12622;DHT22;6376;48.182;-1.644;2023-11-21T08:46:33;14.10;95.00
12622;DHT22;6376;48.182;-1.644;2023-11-21T08:49:01;14.10;94.90
12622;DHT22;6376;48.182;-1.644;2023-11-21T08:51:26;14.10;94.90
12622;DHT22;6376;48.182;-1.644;2023-11-21T08:53:52;14.10;94.90
12622;DHT22;6376;48.182;-1.644;2023-11-21T08:56:18;14.00;94.90
12622;DHT22;6376;48.182;-1.644;2023-11-21T08:58:45;14.00;94.90
12622;DHT22;6376;48.182;-1.644;2023-11-21T09:01:12;14.10;95.00
12622;DHT22;6376;48.182;-1.644;2023-11-21T09:03:38;14.20;94.80
12622;DHT22;6376;48.182;-1.644;2023-11-21T09:06:04;14.30;94.50
12622;DHT22;6376;48.182;-1.644;2023-11-21T09:08:30;14.40;94.30
12622;DHT22;6376;48.182;-1.644;2023-11-21T09:10:57;14.40;94.20
12622;DHT22;6376;48.182;-1.644;2023-11-21T09:13:23;14.50;94.00
12622;DHT22;6376;48.182;-1.644;2023-11-21T09:15:50;14.60;93.80
12622;DHT22;6376;48.182;-1.644;2023-11-21T09:18:16;14.80;93.40
12622;DHT22;6376;48.182;-1.644;2023-11-21T09:20:42;14.80;93.20
12622;DHT22;6376;48.182;-1.644;2023-11-21T09:23:09;14.90;93.10
12622;DHT22;6376;48.182;-1.644;2023-11-21T09:25:35;14.80;93.30
12622;DHT22;6376;48.182;-1.644;2023-11-21T09:28:03;14.80;93.30
12622;DHT22;6376;48.182;-1.644;2023-11-21T09:30:33;14.90;93.10
12622;DHT22;6376;48.182;-1.644;2023-11-21T09:32:59;14.90;93.10
12622;DHT22;6376;48.182;-1.644;2023-11-21T09:35:26;15.00;92.90
12622;DHT22;6376;48.182;-1.644;2023-11-21T09:37:53;15.10;92.60
12622;DHT22;6376;48.182;-1.644;2023-11-21T09:40:21;15.10;92.50
12622;DHT22;6376;48.182;-1.644;2023-11-21T09:42:53;15.20;92.40
12622;DHT22;6376;48.182;-1.644;2023-11-21T09:45:29;15.30;92.20
12622;DHT22;6376;48.182;-1.644;2023-11-21T09:47:59;15.40;92.00
12622;DHT22;6376;48.182;-1.644;2023-11-21T09:50:26;15.40;91.90
12622;DHT22;6376;48.182;-1.644;2023-11-21T09:53:17;15.30;92.00
12622;DHT22;6376;48.182;-1.644;2023-11-21T09:55:44;15.20;92.30
12622;DHT22;6376;48.182;-1.644;2023-11-21T09:58:11;15.10;92.60
12622;DHT22;6376;48.182;-1.644;2023-11-21T10:00:44;15.00;92.70
12622;DHT22;6376;48.182;-1.644;2023-11-21T10:03:10;14.90;92.70
12622;DHT22;6376;48.182;-1.644;2023-11-21T10:05:37;14.90;90.10
12622;DHT22;6376;48.182;-1.644;2023-11-21T10:08:10;14.80;90.10
12622;DHT22;6376;48.182;-1.644;2023-11-21T10:10:47;14.70;90.30
12622;DHT22;6376;48.182;-1.644;2023-11-21T10:13:15;14.70;91.20
12622;DHT22;6376;48.182;-1.644;2023-11-21T10:15:43;14.60;91.70
12622;DHT22;6376;48.182;-1.644;2023-11-21T10:18:14;14.50;91.60
12622;DHT22;6376;48.182;-1.644;2023-11-21T10:20:44;14.50;91.80
12622;DHT22;6376;48.182;-1.644;2023-11-21T10:23:21;14.50;91.80
12622;DHT22;6376;48.182;-1.644;2023-11-21T10:25:47;14.40;92.30
12622;DHT22;6376;48.182;-1.644;2023-11-21T10:28:15;14.40;92.70
12622;DHT22;6376;48.182;-1.644;2023-11-21T10:30:41;14.40;93.00
12622;DHT22;6376;48.182;-1.644;2023-11-21T10:33:07;14.40;93.10
12622;DHT22;6376;48.182;-1.644;2023-11-21T10:35:47;14.40;93.50
12622;DHT22;6376;48.182;-1.644;2023-11-21T10:38:16;14.40;93.50
12622;DHT22;6376;48.182;-1.644;2023-11-21T10:40:42;14.40;93.80
12622;DHT22;6376;48.182;-1.644;2023-11-21T10:43:10;14.30;93.80
12622;DHT22;6376;48.182;-1.644;2023-11-21T10:45:37;14.30;93.90
12622;DHT22;6376;48.182;-1.644;2023-11-21T10:48:07;14.30;94.00
12622;DHT22;6376;48.182;-1.644;2023-11-21T10:50:41;14.40;94.20
12622;DHT22;6376;48.182;-1.644;2023-11-21T10:53:07;14.30;94.00
12622;DHT22;6376;48.182;-1.644;2023-11-21T10:55:34;14.30;94.20
12622;DHT22;6376;48.182;-1.644;2023-11-21T10:58:02;14.40;94.30
12622;DHT22;6376;48.182;-1.644;2023-11-21T11:00:30;14.40;94.20
12622;DHT22;6376;48.182;-1.644;2023-11-21T11:02:56;14.40;94.30
12622;DHT22;6376;48.182;-1.644;2023-11-21T11:05:31;14.30;94.30
12622;DHT22;6376;48.182;-1.644;2023-11-21T11:08:06;14.40;94.30
12622;DHT22;6376;48.182;-1.644;2023-11-21T11:10:33;14.40;94.20
12622;DHT22;6376;48.182;-1.644;2023-11-21T11:12:59;14.40;94.20
12622;DHT22;6376;48.182;-1.644;2023-11-21T11:15:26;14.40;94.20
12622;DHT22;6376;48.182;-1.644;2023-11-21T11:17:53;14.40;94.20
12622;DHT22;6376;48.182;-1.644;2023-11-21T11:20:24;14.40;94.20
12622;DHT22;6376;48.182;-1.644;2023-11-21T11:25:52;14.40;94.30
12622;DHT22;6376;48.182;-1.644;2023-11-21T11:33:53;14.50;94.20
12622;DHT22;6376;48.182;-1.644;2023-11-21T11:36:47;14.50;94.20
12622;DHT22;6376;48.182;-1.644;2023-11-21T11:41:56;14.50;94.20
12622;DHT22;6376;48.182;-1.644;2023-11-21T11:50:10;14.50;94.20
12622;DHT22;6376;48.182;-1.644;2023-11-21T11:52:43;14.50;94.50
12622;DHT22;6376;48.182;-1.644;2023-11-21T11:55:13;14.50;94.10
12622;DHT22;6376;48.182;-1.644;2023-11-21T11:57:42;14.60;94.20
12622;DHT22;6376;48.182;-1.644;2023-11-21T12:00:18;14.50;94.10
12622;DHT22;6376;48.182;-1.644;2023-11-21T12:02:47;14.50;94.10
12622;DHT22;6376;48.182;-1.644;2023-11-21T12:05:18;14.50;94.10
12622;DHT22;6376;48.182;-1.644;2023-11-21T12:07:51;14.50;94.10
12622;DHT22;6376;48.182;-1.644;2023-11-21T12:10:22;14.60;94.10
12622;DHT22;6376;48.182;-1.644;2023-11-21T12:12:51;14.50;94.10
12622;DHT22;6376;48.182;-1.644;2023-11-21T12:15:18;14.60;94.10
12622;DHT22;6376;48.182;-1.644;2023-11-21T12:17:45;14.60;94.10
12622;DHT22;6376;48.182;-1.644;2023-11-21T12:20:13;14.60;94.00
12622;DHT22;6376;48.182;-1.644;2023-11-21T12:22:56;14.50;94.00
12622;DHT22;6376;48.182;-1.644;2023-11-21T12:25:28;14.50;94.10
12622;DHT22;6376;48.182;-1.644;2023-11-21T12:27:55;14.50;94.10
12622;DHT22;6376;48.182;-1.644;2023-11-21T12:30:23;14.50;94.10
12622;DHT22;6376;48.182;-1.644;2023-11-21T12:32:52;14.50;94.10
12622;DHT22;6376;48.182;-1.644;2023-11-21T12:35:28;14.50;94.10
12622;DHT22;6376;48.182;-1.644;2023-11-21T12:37:56;14.50;94.10
12622;DHT22;6376;48.182;-1.644;2023-11-21T12:40:24;14.50;94.20
12622;DHT22;6376;48.182;-1.644;2023-11-21T12:42:56;14.50;94.20
12622;DHT22;6376;48.182;-1.644;2023-11-21T12:45:23;14.40;94.20
12622;DHT22;6376;48.182;-1.644;2023-11-21T12:48:00;14.50;94.20
12622;DHT22;6376;48.182;-1.644;2023-11-21T12:50:28;14.50;94.20
12622;DHT22;6376;48.182;-1.644;2023-11-21T12:53:04;14.40;94.20
12622;DHT22;6376;48.182;-1.644;2023-11-21T12:55:32;14.40;94.10
12622;DHT22;6376;48.182;-1.644;2023-11-21T12:57:59;14.40;94.10
12622;DHT22;6376;48.182;-1.644;2023-11-21T13:00:34;14.40;94.50
12622;DHT22;6376;48.182;-1.644;2023-11-21T13:03:03;14.40;94.20
12622;DHT22;6376;48.182;-1.644;2023-11-21T13:05:32;14.40;94.20
12622;DHT22;6376;48.182;-1.644;2023-11-21T13:08:00;14.40;94.10
12622;DHT22;6376;48.182;-1.644;2023-11-21T13:10:29;14.40;94.10
12622;DHT22;6376;48.182;-1.644;2023-11-21T13:12:57;14.40;94.10
12622;DHT22;6376;48.182;-1.644;2023-11-21T13:15:24;14.50;94.20
12622;DHT22;6376;48.182;-1.644;2023-11-21T13:17:50;14.40;94.20
12622;DHT22;6376;48.182;-1.644;2023-11-21T13:20:17;14.40;94.10
12622;DHT22;6376;48.182;-1.644;2023-11-21T13:22:50;14.40;94.10
12622;DHT22;6376;48.182;-1.644;2023-11-21T13:25:20;14.40;94.10
12622;DHT22;6376;48.182;-1.644;2023-11-21T13:27:46;14.40;94.10
12622;DHT22;6376;48.182;-1.644;2023-11-21T13:30:15;14.40;94.10
12622;DHT22;6376;48.182;-1.644;2023-11-21T13:32:43;14.40;94.10
12622;DHT22;6376;48.182;-1.644;2023-11-21T13:35:09;14.40;94.00
12622;DHT22;6376;48.182;-1.644;2023-11-21T13:37:40;14.40;93.90
12622;DHT22;6376;48.182;-1.644;2023-11-21T13:40:07;14.40;94.10
12622;DHT22;6376;48.182;-1.644;2023-11-21T13:42:40;14.40;94.00
12622;DHT22;6376;48.182;-1.644;2023-11-21T13:45:07;14.40;94.10
12622;DHT22;6376;48.182;-1.644;2023-11-21T13:47:32;14.40;94.00
12622;DHT22;6376;48.182;-1.644;2023-11-21T13:49:59;14.40;94.10
12622;DHT22;6376;48.182;-1.644;2023-11-21T13:52:26;14.40;94.00
12622;DHT22;6376;48.182;-1.644;2023-11-21T13:54:53;14.40;94.00
12622;DHT22;6376;48.182;-1.644;2023-11-21T13:57:19;14.30;94.00
12622;DHT22;6376;48.182;-1.644;2023-11-21T13:59:46;14.40;94.10
12622;DHT22;6376;48.182;-1.644;2023-11-21T14:02:11;14.30;94.00
12622;DHT22;6376;48.182;-1.644;2023-11-21T14:04:44;14.40;94.00
12622;DHT22;6376;48.182;-1.644;2023-11-21T14:07:12;14.40;94.00
12622;DHT22;6376;48.182;-1.644;2023-11-21T14:10:05;14.30;94.00
12622;DHT22;6376;48.182;-1.644;2023-11-21T14:12:33;14.40;94.00
12622;DHT22;6376;48.182;-1.644;2023-11-21T14:15:01;14.40;94.00
12622;DHT22;6376;48.182;-1.644;2023-11-21T14:17:30;14.40;94.10
12622;DHT22;6376;48.182;-1.644;2023-11-21T14:19:56;14.30;94.00
12622;DHT22;6376;48.182;-1.644;2023-11-21T14:22:21;14.40;94.00
12622;DHT22;6376;48.182;-1.644;2023-11-21T14:24:47;14.30;94.00
12622;DHT22;6376;48.182;-1.644;2023-11-21T14:27:15;14.30;93.90
12622;DHT22;6376;48.182;-1.644;2023-11-21T14:29:41;14.40;94.00
12622;DHT22;6376;48.182;-1.644;2023-11-21T14:32:10;14.40;94.00
12622;DHT22;6376;48.182;-1.644;2023-11-21T14:34:35;14.30;93.90
12622;DHT22;6376;48.182;-1.644;2023-11-21T14:37:02;14.40;94.00
12622;DHT22;6376;48.182;-1.644;2023-11-21T14:39:30;14.40;93.90
12622;DHT22;6376;48.182;-1.644;2023-11-21T14:42:00;14.40;94.00
12622;DHT22;6376;48.182;-1.644;2023-11-21T14:44:28;14.30;94.00
12622;DHT22;6376;48.182;-1.644;2023-11-21T14:46:58;14.30;94.00
12622;DHT22;6376;48.182;-1.644;2023-11-21T14:49:24;14.30;94.00
12622;DHT22;6376;48.182;-1.644;2023-11-21T14:51:54;14.30;93.90
12622;DHT22;6376;48.182;-1.644;2023-11-21T14:54:32;14.30;94.00
12622;DHT22;6376;48.182;-1.644;2023-11-21T14:57:09;14.30;94.00
12622;DHT22;6376;48.182;-1.644;2023-11-21T14:59:42;14.30;94.00
12622;DHT22;6376;48.182;-1.644;2023-11-21T15:02:08;14.30;93.90
12622;DHT22;6376;48.182;-1.644;2023-11-21T15:04:46;14.30;93.80
12622;DHT22;6376;48.182;-1.644;2023-11-21T15:07:13;14.30;93.90
12622;DHT22;6376;48.182;-1.644;2023-11-21T15:09:39;14.30;93.90
12622;DHT22;6376;48.182;-1.644;2023-11-21T15:12:08;14.30;94.00
12622;DHT22;6376;48.182;-1.644;2023-11-21T15:14:50;14.30;94.00
12622;DHT22;6376;48.182;-1.644;2023-11-21T15:17:20;14.30;93.80
12622;DHT22;6376;48.182;-1.644;2023-11-21T15:19:51;14.30;93.90
12622;DHT22;6376;48.182;-1.644;2023-11-21T15:22:17;14.30;94.00
12622;DHT22;6376;48.182;-1.644;2023-11-21T15:24:43;14.30;93.90
12622;DHT22;6376;48.182;-1.644;2023-11-21T15:27:12;14.30;93.90
12622;DHT22;6376;48.182;-1.644;2023-11-21T15:29:41;14.20;93.90
12622;DHT22;6376;48.182;-1.644;2023-11-21T15:32:07;14.30;93.90
12622;DHT22;6376;48.182;-1.644;2023-11-21T15:34:34;14.30;93.90
12622;DHT22;6376;48.182;-1.644;2023-11-21T15:36:59;14.30;93.90
12622;DHT22;6376;48.182;-1.644;2023-11-21T15:39:25;14.30;93.80
12622;DHT22;6376;48.182;-1.644;2023-11-21T15:41:55;14.30;93.80
12622;DHT22;6376;48.182;-1.644;2023-11-21T15:44:20;14.30;93.90
12622;DHT22;6376;48.182;-1.644;2023-11-21T15:46:46;14.20;93.90
12622;DHT22;6376;48.182;-1.644;2023-11-21T15:49:13;14.20;93.80